Time;durP1;ratioP1;P1;durP2;ratioP2;P2;SDS_P1;SDS_P2;PMS_P1;PMS_P2;Temp;Humidity;BMP_temperature;BMP_pressure;BME280_temperature;BME280_humidity;BME280_pressure;Samples;Min_cycle;Max_cycle;Signal;HPM_P1;HPM_P2
2023/02/26 00:01:44;;;;;;;2.90;2.20;;;;;;;1.16;87.97;99041.65;108957;1256;93592;-58
2023/02/26 00:04:18;;;;;;;4.50;2.60;;;;;;;1.10;88.01;99047.17;108995;1256;80499;-58
2023/02/26 00:06:52;;;;;;;3.90;2.60;;;;;;;1.11;87.90;99050.17;109022;1256;82643;-58
2023/02/26 00:09:26;;;;;;;4.20;2.50;;;;;;;1.17;87.83;99051.21;109002;1256;98211;-57
2023/02/26 00:12:02;;;;;;;3.30;2.30;;;;;;;1.18;87.87;99052.59;109055;1256;86350;-57
2023/02/26 00:14:36;;;;;;;3.60;2.10;;;;;;;1.15;87.76;99058.39;109039;1256;95616;-61
2023/02/26 00:17:42;;;;;;;3.20;2.10;;;;;;;1.14;87.84;99065.73;109014;1256;80082;-62
2023/02/26 00:20:16;;;;;;;;;;;;;;;1.16;87.78;99070.73;109039;1256;80353;-60
2023/02/26 00:22:52;;;;;;;3.20;2.10;;;;;;;1.07;87.58;99076.39;109032;1256;98443;-61
2023/02/26 00:25:26;;;;;;;3.00;2.30;;;;;;;1.02;87.53;99086.21;109038;1256;88482;-60
2023/02/26 00:28:01;;;;;;;4.50;2.60;;;;;;;0.97;87.46;99091.14;109021;1256;92981;-61
2023/02/26 00:30:37;;;;;;;4.50;2.30;;;;;;;0.99;87.28;99094.17;108976;1256;81266;-60
2023/02/26 00:33:13;;;;;;;2.70;2.00;;;;;;;0.98;87.33;99100.95;109009;1256;81326;-57
2023/02/26 00:35:48;;;;;;;2.70;2.00;;;;;;;0.95;87.28;99099.88;108952;1256;99514;-57
2023/02/26 00:38:23;;;;;;;2.80;2.10;;;;;;;0.95;87.15;99102.20;109054;1256;88396;-58
2023/02/26 00:40:59;;;;;;;3.70;2.20;;;;;;;0.96;87.10;99106.49;109013;1256;94870;-58
2023/02/26 00:43:34;;;;;;;3.20;2.60;;;;;;;0.93;87.01;99110.20;109032;1256;79247;-61
2023/02/26 00:46:21;;;;;;;3.20;2.20;;;;;;;0.88;86.88;99110.58;108976;1256;82670;-61
2023/02/26 00:49:05;;;;;;;4.40;2.40;;;;;;;0.87;86.64;99113.91;109001;1256;100027;-60
2023/02/26 00:51:47;;;;;;;3.90;2.30;;;;;;;0.82;86.56;99120.22;109032;1256;86957;-60
2023/02/26 00:54:24;;;;;;;2.90;2.20;;;;;;;0.79;86.35;99121.83;109025;1256;93183;-61
2023/02/26 00:56:59;;;;;;;3.70;2.30;;;;;;;0.79;86.29;99130.00;109005;1256;80247;-61
2023/02/26 00:59:34;;;;;;;2.90;2.10;;;;;;;0.75;86.31;99128.48;109036;1256;82796;-56
2023/02/26 01:02:08;;;;;;;3.20;2.00;;;;;;;0.70;86.22;99132.82;109016;1256;99621;-57
2023/02/26 01:04:45;;;;;;;3.10;2.20;;;;;;;0.71;86.28;99134.45;109040;1256;87008;-61
2023/02/26 01:07:23;;;;;;;2.50;1.90;;;;;;;0.73;86.17;99137.48;109010;1256;92306;-61
2023/02/26 01:09:58;;;;;;;3.60;2.30;;;;;;;0.74;86.09;99139.20;108999;1256;78069;-61
2023/02/26 01:12:33;;;;;;;3.30;2.40;;;;;;;0.73;86.10;99145.09;109042;1256;81561;-58
2023/02/26 01:15:10;;;;;;;3.00;2.20;;;;;;;0.70;85.83;99145.04;108990;1256;97456;-56
2023/02/26 01:17:52;;;;;;;3.60;2.20;;;;;;;0.68;85.73;99147.45;109014;1256;88751;-57
2023/02/26 01:20:30;;;;;;;3.20;2.40;;;;;;;0.61;85.69;99155.35;109007;1256;95254;-56
2023/02/26 01:23:08;;;;;;;3.20;2.20;;;;;;;0.61;85.62;99157.88;109015;1256;79829;-60
2023/02/26 01:25:48;;;;;;;3.80;2.40;;;;;;;0.56;85.62;99163.11;109013;1256;81061;-60
2023/02/26 01:28:24;;;;;;;5.20;2.30;;;;;;;0.55;85.61;99162.84;108965;1256;98292;-57
2023/02/26 01:31:03;;;;;;;3.40;2.40;;;;;;;0.60;85.66;99171.06;109027;1256;88156;-56
2023/02/26 01:33:46;;;;;;;4.00;2.50;;;;;;;0.65;85.51;99173.40;108995;1256;95778;-61
2023/02/26 01:36:24;;;;;;;4.30;2.60;;;;;;;0.65;85.48;99183.30;109002;1256;78612;-62
2023/02/26 01:39:09;;;;;;;3.10;2.30;;;;;;;0.61;85.47;99187.64;109067;1256;82489;-58
2023/02/26 01:41:46;;;;;;;4.60;2.60;;;;;;;0.58;85.12;99197.58;109054;1256;99653;-58
2023/02/26 01:44:31;;;;;;;3.50;2.50;;;;;;;0.53;85.10;99199.16;109002;1256;88708;-61
2023/02/26 01:47:23;;;;;;;4.10;2.80;;;;;;;0.51;84.94;99209.33;109021;1256;93268;-61
2023/02/26 01:49:59;;;;;;;4.30;2.90;;;;;;;0.49;85.04;99216.05;108966;1256;81326;-60
2023/02/26 01:53:24;;;;;;;3.30;2.40;;;;;;;0.51;85.03;99220.90;109008;1258;82562;-60
2023/02/26 01:56:03;;;;;;;3.40;2.30;;;;;;;0.48;84.93;99227.52;108990;1256;97792;-62
2023/02/26 01:58:38;;;;;;;3.80;2.60;;;;;;;0.49;84.90;99230.66;109032;1256;88865;-56
2023/02/26 02:01:12;;;;;;;3.80;2.60;;;;;;;0.50;84.98;99235.15;109006;1256;95346;-56
2023/02/26 02:03:47;;;;;;;4.30;2.80;;;;;;;0.46;84.90;99241.76;109004;1256;79370;-56
2023/02/26 02:06:22;;;;;;;;;;;;;;;0.46;84.99;99245.05;109067;1256;83035;-56
2023/02/26 02:08:56;;;;;;;3.20;2.60;;;;;;;0.43;84.84;99251.40;109011;1256;98950;-61
2023/02/26 02:11:30;;;;;;;3.30;2.60;;;;;;;0.40;84.78;99255.26;109038;1256;87614;-62
2023/02/26 02:14:18;;;;;;;4.10;2.80;;;;;;;0.41;84.63;99266.81;109044;1256;92239;-61
2023/02/26 02:17:02;;;;;;;3.90;2.80;;;;;;;0.39;84.63;99272.74;108981;1256;80518;-62
2023/02/26 02:20:07;;;;;;;3.40;2.50;;;;;;;0.40;84.59;99286.08;109004;1256;81464;-60
2023/02/26 02:22:59;;;;;;;3.20;2.30;;;;;;;0.38;84.66;99289.81;109019;1256;99706;-57
2023/02/26 02:26:29;;;;;;;4.60;3.20;;;;;;;0.43;84.65;99296.19;108980;1256;89323;-58
2023/02/26 02:29:33;;;;;;;4.30;2.90;;;;;;;0.48;84.66;99300.34;109039;1256;93017;-60
2023/02/26 02:32:10;;;;;;;3.60;2.60;;;;;;;0.49;84.57;99306.61;109014;1257;78521;-60
2023/02/26 02:34:49;;;;;;;4.00;2.90;;;;;;;0.53;84.58;99309.76;108996;1256;82099;-60
2023/02/26 02:37:37;;;;;;;3.90;2.90;;;;;;;0.50;84.42;99316.91;109000;1256;98075;-60
2023/02/26 02:40:17;;;;;;;5.00;3.30;;;;;;;0.50;84.31;99321.02;109022;1256;85484;-60
2023/02/26 02:42:59;;;;;;;4.70;3.00;;;;;;;0.53;84.31;99323.05;109011;1256;95695;-57
2023/02/26 02:45:41;;;;;;;4.50;3.00;;;;;;;0.49;84.23;99321.62;109007;1256;80901;-56
2023/02/26 02:48:20;;;;;;;4.10;2.70;;;;;;;0.47;84.13;99326.86;109038;1256;80420;-61
2023/02/26 02:50:58;;;;;;;3.60;2.90;;;;;;;0.45;84.17;99326.13;109018;1256;99642;-61
2023/02/26 02:53:37;;;;;;;5.30;2.90;;;;;;;0.46;84.14;99329.42;109050;1256;87076;-61
2023/02/26 02:56:17;;;;;;;3.90;2.80;;;;;;;0.46;84.10;99329.02;109021;1256;94563;-62
2023/02/26 02:59:04;;;;;;;3.80;2.80;;;;;;;0.46;84.09;99334.38;108998;1256;79012;-58
2023/02/26 03:01:40;;;;;;;3.10;2.40;;;;;;;0.47;83.97;99336.39;109031;1256;81745;-58
2023/02/26 03:04:17;;;;;;;4.00;2.70;;;;;;;0.44;83.80;99340.10;109044;1256;98914;-60
2023/02/26 03:06:51;;;;;;;4.10;3.10;;;;;;;0.40;84.00;99340.77;108970;1256;88578;-60
2023/02/26 03:09:25;;;;;;;4.90;3.40;;;;;;;0.41;83.79;99347.20;109012;1256;95095;-56
2023/02/26 03:11:59;;;;;;;3.80;2.80;;;;;;;0.41;83.76;99350.23;109008;1256;81920;-56
2023/02/26 03:14:33;;;;;;;3.20;2.40;;;;;;;0.39;83.94;99355.02;109065;1256;83096;-62
2023/02/26 03:17:26;;;;;;;5.20;3.30;;;;;;;0.44;84.05;99366.27;108980;1256;98908;-62
2023/02/26 03:20:17;;;;;;;4.80;3.10;;;;;;;0.47;84.05;99370.88;109039;1256;89210;-56
2023/02/26 03:23:06;;;;;;;3.90;2.90;;;;;;;0.51;83.85;99378.52;109013;1256;93536;-58
2023/02/26 03:25:50;;;;;;;3.90;2.60;;;;;;;0.52;83.93;99386.73;109004;1256;78103;-58
2023/02/26 03:28:29;;;;;;;4.60;3.20;;;;;;;0.54;83.80;99396.29;109042;1256;82123;-62
2023/02/26 03:31:10;;;;;;;4.30;3.30;;;;;;;0.51;83.81;99399.18;109024;1256;98125;-62
2023/02/26 03:33:54;;;;;;;6.20;3.30;;;;;;;0.50;83.83;99405.18;109012;1256;88553;-58
2023/02/26 03:36:36;;;;;;;14.30;5.80;;;;;;;0.50;83.86;99412.04;108990;1256;91856;-58
2023/02/26 03:39:16;;;;;;;18.30;5.70;;;;;;;0.48;83.81;99410.30;109019;1256;80749;-58
2023/02/26 03:41:56;;;;;;;27.40;7.70;;;;;;;0.49;83.65;99411.28;109023;1256;82893;-58
2023/02/26 03:44:35;;;;;;;42.00;11.50;;;;;;;0.51;83.78;99413.91;109051;1256;99706;-58
2023/02/26 03:47:13;;;;;;;28.10;8.20;;;;;;;0.53;83.84;99419.04;109027;1256;88726;-58
2023/02/26 03:49:54;;;;;;;22.20;7.80;;;;;;;0.56;83.85;99431.48;109024;1256;94800;-58
2023/02/26 03:52:36;;;;;;;30.60;8.70;;;;;;;0.59;84.02;99433.50;109027;1257;79470;-58
2023/02/26 03:55:16;;;;;;;22.20;7.60;;;;;;;0.58;83.92;99433.57;109022;1256;82225;-62
2023/02/26 03:57:51;;;;;;;18.50;5.60;;;;;;;0.62;83.99;99437.34;109008;1256;97780;-61
2023/02/26 04:00:26;;;;;;;17.70;5.70;;;;;;;0.60;83.94;99438.90;108992;1256;88719;-62
2023/02/26 04:03:07;;;;;;;18.10;6.10;;;;;;;0.63;83.94;99444.84;109036;1256;93674;-61
2023/02/26 04:05:47;;;;;;;25.00;7.80;;;;;;;0.62;83.90;99445.80;109009;1256;80377;-62
2023/02/26 04:08:22;;;;;;;15.20;6.00;;;;;;;0.62;83.92;99451.31;109016;1256;82988;-57
2023/02/26 04:10:59;;;;;;;20.10;6.20;;;;;;;0.66;83.97;99452.02;109029;1256;99286;-57
2023/02/26 04:13:33;;;;;;;17.80;6.90;;;;;;;0.68;84.08;99457.83;109032;1256;89135;-62
2023/02/26 04:16:08;;;;;;;22.50;7.20;;;;;;;0.68;84.07;99456.59;109006;1260;95365;-62
2023/02/26 04:18:42;;;;;;;14.20;5.20;;;;;;;0.67;84.18;99458.41;109040;1256;76779;-62
2023/02/26 04:21:20;;;;;;;17.10;6.00;;;;;;;0.68;83.95;99464.39;109021;1256;79668;-62
2023/02/26 04:23:54;;;;;;;16.00;5.60;;;;;;;0.60;83.96;99468.10;109023;1256;99830;-60
2023/02/26 04:26:28;;;;;;;16.40;5.90;;;;;;;0.59;83.93;99477.27;109059;1256;87347;-60
2023/02/26 04:29:02;;;;;;;9.60;4.10;;;;;;;0.61;84.10;99487.36;109026;1256;94974;-60
2023/02/26 04:31:36;;;;;;;7.80;4.00;;;;;;;0.62;84.17;99488.81;108995;1256;79631;-60
2023/02/26 04:34:10;;;;;;;7.80;4.10;;;;;;;0.64;84.20;99487.99;109056;1256;83663;-60
2023/02/26 04:36:44;;;;;;;6.20;3.40;;;;;;;0.62;84.17;99490.27;109012;1256;98471;-60
2023/02/26 04:39:18;;;;;;;9.50;4.10;;;;;;;0.66;84.26;99492.77;109016;1257;88589;-58
2023/02/26 04:41:52;;;;;;;13.10;5.40;;;;;;;0.70;84.29;99495.04;109020;1256;94308;-58
2023/02/26 04:44:26;;;;;;;7.30;4.50;;;;;;;0.71;84.24;99497.71;109009;1256;78684;-60
2023/02/26 04:47:00;;;;;;;7.90;4.20;;;;;;;0.67;84.20;99501.89;109009;1256;82340;-60
2023/02/26 04:49:34;;;;;;;9.00;3.80;;;;;;;0.59;84.37;99503.79;108972;1256;99467;-60
2023/02/26 04:52:08;;;;;;;13.10;6.10;;;;;;;0.59;84.29;99509.08;108806;1256;280201;-60
2023/02/26 04:54:42;;;;;;;8.10;4.00;;;;;;;0.60;84.37;99514.07;109033;1256;94938;-60
2023/02/26 04:57:16;;;;;;;7.30;3.40;;;;;;;0.56;84.34;99517.04;108968;1256;81048;-60
2023/02/26 04:59:50;;;;;;;4.30;2.50;;;;;;;0.47;84.20;99519.38;109037;1256;81507;-62
2023/02/26 05:02:24;;;;;;;3.60;2.40;;;;;;;0.43;84.05;99523.65;109045;1256;98769;-62
2023/02/26 05:04:59;;;;;;;4.10;2.30;;;;;;;0.41;83.81;99528.23;109024;1256;88832;-58
2023/02/26 05:07:33;;;;;;;3.60;2.40;;;;;;;0.41;83.86;99530.86;109008;1256;94971;-59
2023/02/26 05:10:11;;;;;;;4.20;2.30;;;;;;;0.39;83.79;99539.22;109013;1256;79736;-62
2023/02/26 05:12:45;;;;;;;3.30;2.30;;;;;;;0.36;83.83;99540.65;109027;1256;82466;-60
2023/02/26 05:15:19;;;;;;;2.90;1.80;;;;;;;0.31;83.83;99546.36;109013;1256;99106;-60
2023/02/26 05:17:53;;;;;;;2.70;2.00;;;;;;;0.28;83.67;99554.52;109062;1256;85937;-61
2023/02/26 05:20:27;;;;;;;3.00;1.90;;;;;;;0.25;83.58;99558.67;109020;1256;95220;-62
2023/02/26 05:23:01;;;;;;;3.30;2.00;;;;;;;0.24;83.64;99561.42;109011;1256;80542;-60
2023/02/26 05:25:35;;;;;;;2.80;1.80;;;;;;;0.27;83.59;99571.36;109030;1256;81118;-60
2023/02/26 05:28:09;;;;;;;3.50;2.10;;;;;;;0.28;83.65;99573.25;109020;1256;99651;-58
2023/02/26 05:30:44;;;;;;;3.50;2.20;;;;;;;0.32;83.66;99584.16;109033;1256;88604;-56
2023/02/26 05:33:18;;;;;;;4.40;2.30;;;;;;;0.32;83.73;99589.17;109024;1256;96041;-57
2023/02/26 05:35:52;;;;;;;3.60;2.00;;;;;;;0.33;83.66;99592.09;109009;1256;79146;-56
2023/02/26 05:38:26;;;;;;;2.50;1.50;;;;;;;0.30;83.52;99596.59;109057;1256;80381;-58
2023/02/26 05:41:01;;;;;;;2.80;1.70;;;;;;;0.22;83.43;99609.27;109005;1256;100060;-57
2023/02/26 05:43:35;;;;;;;3.10;1.70;;;;;;;0.18;83.20;99615.06;109002;1256;88548;-60
2023/02/26 05:46:10;;;;;;;2.40;1.60;;;;;;;0.14;82.99;99621.70;108981;1258;95347;-60
2023/02/26 05:48:44;;;;;;;3.00;1.30;;;;;;;0.06;82.67;99631.64;109019;1256;77140;-57
2023/02/26 05:51:18;;;;;;;1.90;1.20;;;;;;;-0.01;82.39;99641.25;109030;1256;80655;-57
2023/02/26 05:53:52;;;;;;;2.10;1.30;;;;;;;-0.04;81.98;99645.14;109044;1256;96488;-60
2023/02/26 05:56:26;;;;;;;2.20;1.20;;;;;;;-0.14;81.74;99654.52;109009;1256;89205;-60
2023/02/26 05:59:01;;;;;;;2.90;1.00;;;;;;;-0.18;81.59;99658.64;109014;1256;94951;-56
2023/02/26 06:01:36;;;;;;;1.90;1.20;;;;;;;-0.18;81.45;99668.36;109013;1256;80643;-56
2023/02/26 06:04:10;;;;;;;2.30;1.20;;;;;;;-0.18;81.25;99668.16;109023;1256;82633;-56
2023/02/26 06:06:42;;;;;;;;;;;;;;;-0.22;80.71;99670.50;109059;1256;99154;-56
2023/02/26 06:09:17;;;;;;;1.50;1.00;;;;;;;-0.31;80.52;99674.69;109036;1256;88038;-62
2023/02/26 06:11:51;;;;;;;2.80;1.00;;;;;;;-0.39;80.32;99684.59;109000;1256;95330;-62
2023/02/26 06:14:25;;;;;;;2.40;1.40;;;;;;;-0.42;80.20;99691.58;108994;1256;80229;-60
2023/02/26 06:16:59;;;;;;;1.90;1.20;;;;;;;-0.39;80.17;99693.24;109061;1259;82173;-60
2023/02/26 06:19:35;;;;;;;2.60;1.60;;;;;;;-0.37;80.31;99700.33;109007;1256;99655;-56
2023/02/26 06:22:09;;;;;;;3.00;1.40;;;;;;;-0.36;80.27;99701.66;109054;1256;87124;-56
2023/02/26 06:24:43;;;;;;;2.50;1.30;;;;;;;-0.30;80.20;99707.14;109035;1256;95307;-58
2023/02/26 06:27:17;;;;;;;2.30;1.30;;;;;;;-0.32;80.16;99712.14;108999;1256;80103;-57
2023/02/26 06:29:51;;;;;;;1.90;1.10;;;;;;;-0.36;80.11;99718.29;109035;1256;82594;-56
2023/02/26 06:32:27;;;;;;;3.30;1.60;;;;;;;-0.34;80.10;99722.90;109021;1256;96146;-56
2023/02/26 06:35:02;;;;;;;3.50;1.60;;;;;;;-0.36;80.09;99731.25;109030;1256;88663;-60
2023/02/26 06:37:37;;;;;;;2.30;1.60;;;;;;;-0.37;79.83;99734.67;109033;1256;93910;-60
2023/02/26 06:40:15;;;;;;;3.10;1.60;;;;;;;-0.37;79.61;99739.11;109011;1256;80553;-62
2023/02/26 06:42:49;;;;;;;2.90;1.50;;;;;;;-0.33;79.64;99743.38;109061;1256;82979;-56
2023/02/26 06:45:23;;;;;;;2.20;1.10;;;;;;;-0.29;79.63;99747.92;108994;1256;99233;-56
2023/02/26 06:47:58;;;;;;;2.30;1.40;;;;;;;-0.28;79.33;99748.53;109000;1258;87781;-60
2023/02/26 06:50:32;;;;;;;2.60;1.50;;;;;;;-0.24;79.29;99758.48;109035;1256;92189;-60
2023/02/26 06:53:06;;;;;;;3.00;1.50;;;;;;;-0.22;79.29;99762.17;109001;1256;80158;-61
2023/02/26 06:55:42;;;;;;;;;;;;;;;-0.19;79.32;99765.20;109056;1256;83249;-61
2023/02/26 06:58:16;;;;;;;2.30;1.30;;;;;;;-0.14;79.30;99772.71;109047;1256;99972;-60
2023/02/26 07:00:50;;;;;;;2.80;1.50;;;;;;;-0.08;79.08;99778.34;109036;1256;88452;-60
2023/02/26 07:03:24;;;;;;;2.60;1.40;;;;;;;-0.04;78.55;99785.25;109061;1256;93870;-60
2023/02/26 07:05:59;;;;;;;2.20;1.40;;;;;;;-0.06;78.38;99786.85;109029;1256;80095;-60
2023/02/26 07:08:32;;;;;;;2.60;1.40;;;;;;;0.00;78.38;99789.51;109040;1259;82061;-60
2023/02/26 07:11:08;;;;;;;2.00;1.10;;;;;;;0.03;78.41;99794.59;108997;1256;98482;-60
2023/02/26 07:13:42;;;;;;;2.30;1.30;;;;;;;0.03;78.20;99794.27;109038;1256;86547;-56
2023/02/26 07:16:16;;;;;;;2.00;1.10;;;;;;;0.06;78.14;99801.02;109012;1256;94308;-56
2023/02/26 07:18:51;;;;;;;2.40;1.50;;;;;;;0.10;78.11;99808.64;109010;1256;81696;-61
2023/02/26 07:21:25;;;;;;;2.00;1.30;;;;;;;0.11;78.11;99808.77;109085;1256;80851;-62
2023/02/26 07:23:59;;;;;;;2.40;1.40;;;;;;;0.15;78.05;99812.23;108995;1256;99478;-62
2023/02/26 07:26:33;;;;;;;3.00;1.50;;;;;;;0.14;78.13;99812.64;109071;1256;88802;-62
2023/02/26 07:29:07;;;;;;;2.30;1.60;;;;;;;0.20;77.85;99811.84;109024;1256;94860;-60
2023/02/26 07:31:41;;;;;;;2.10;1.50;;;;;;;0.25;78.02;99816.48;109033;1256;77761;-60
2023/02/26 07:34:16;;;;;;;3.60;1.60;;;;;;;0.29;77.87;99817.48;109049;1256;83334;-62
2023/02/26 07:36:50;;;;;;;2.70;1.90;;;;;;;0.30;77.71;99826.27;109029;1256;98342;-62
2023/02/26 07:39:24;;;;;;;3.40;1.50;;;;;;;0.26;77.38;99832.52;109064;1256;87516;-56
2023/02/26 07:41:59;;;;;;;2.90;1.80;;;;;;;0.19;77.17;99837.73;108888;1256;94228;-56
2023/02/26 07:44:33;;;;;;;3.50;1.40;;;;;;;0.19;77.28;99848.18;109041;1256;79658;-58
2023/02/26 07:47:07;;;;;;;2.60;1.70;;;;;;;0.18;77.27;99849.52;109046;1256;82988;-58
2023/02/26 07:49:41;;;;;;;3.40;1.50;;;;;;;0.10;76.97;99854.48;109040;1256;99599;-60
2023/02/26 07:52:15;;;;;;;2.90;1.40;;;;;;;0.10;76.91;99855.17;109032;1256;88046;-60
2023/02/26 07:54:50;;;;;;;3.10;1.60;;;;;;;0.17;76.95;99860.92;109012;1256;92753;-58
2023/02/26 07:57:24;;;;;;;3.40;1.80;;;;;;;0.24;77.05;99865.58;109000;1256;79325;-58
2023/02/26 07:59:57;;;;;;;;;;;;;;;0.23;77.03;99872.75;109067;1260;79798;-62
2023/02/26 08:02:31;;;;;;;3.80;1.50;;;;;;;0.24;76.98;99881.40;109080;1256;96740;-62
2023/02/26 08:05:04;;;;;;;;;;;;;;;0.24;76.88;99882.58;109058;1259;88641;-56
2023/02/26 08:07:38;;;;;;;2.80;1.50;;;;;;;0.32;76.95;99887.06;109052;1256;95237;-60
2023/02/26 08:10:13;;;;;;;2.50;1.50;;;;;;;0.37;76.83;99890.46;109021;1256;79408;-60
2023/02/26 08:12:47;;;;;;;2.80;1.40;;;;;;;0.43;76.80;99894.31;109058;1256;82196;-56
2023/02/26 08:15:22;;;;;;;2.70;1.50;;;;;;;0.46;76.73;99900.64;109045;1256;99032;-56
2023/02/26 08:17:55;;;;;;;;;;;;;;;0.44;76.61;99903.31;109051;1256;89115;-62
2023/02/26 08:20:30;;;;;;;3.10;1.20;;;;;;;0.43;76.41;99907.65;109028;1260;95505;-62
2023/02/26 08:23:02;;;;;;;;;;;;;;;0.40;76.16;99916.75;109045;1256;76509;-60
2023/02/26 08:25:37;;;;;;;2.00;1.20;;;;;;;0.35;76.04;99922.84;109051;1256;81207;-60
2023/02/26 08:28:09;;;;;;;;;;;;;;;0.33;75.57;99931.02;109061;1256;99917;-60
2023/02/26 08:30:43;;;;;;;2.20;1.20;;;;;;;0.28;75.53;99938.77;109033;1256;86816;-60
2023/02/26 08:33:19;;;;;;;2.20;1.10;;;;;;;0.25;75.49;99942.52;109022;1256;94851;-62
2023/02/26 08:35:54;;;;;;;2.00;1.20;;;;;;;0.24;75.40;99944.63;109104;1256;80243;-64
2023/02/26 08:38:29;;;;;;;1.80;1.20;;;;;;;0.21;75.45;99949.23;109068;1256;83471;-56
2023/02/26 08:41:04;;;;;;;1.80;1.00;;;;;;;0.21;75.49;99953.20;109026;1256;100372;-56
2023/02/26 08:43:38;;;;;;;2.70;1.20;;;;;;;0.18;75.13;99947.61;109090;1256;88606;-61
2023/02/26 08:46:12;;;;;;;1.70;0.90;;;;;;;0.20;74.97;99953.83;109106;1256;94602;-61
2023/02/26 08:48:46;;;;;;;1.80;1.10;;;;;;;0.18;74.98;99956.96;109056;1256;78402;-61
2023/02/26 08:51:20;;;;;;;1.80;1.10;;;;;;;0.23;74.83;99965.02;109127;1256;79458;-61
2023/02/26 08:53:54;;;;;;;1.40;1.00;;;;;;;0.25;74.84;99971.77;109058;1256;99674;-56
2023/02/26 08:56:28;;;;;;;1.80;0.90;;;;;;;0.27;74.85;99976.86;109066;1256;89601;-55
2023/02/26 08:59:02;;;;;;;1.40;0.90;;;;;;;0.29;74.88;99983.13;109095;1256;95081;-61
2023/02/26 09:01:36;;;;;;;1.10;0.90;;;;;;;0.33;74.97;99985.04;109111;1256;80472;-63
2023/02/26 09:04:10;;;;;;;2.20;1.40;;;;;;;0.36;75.10;99995.02;109055;1256;82560;-61
2023/02/26 09:06:44;;;;;;;2.50;1.20;;;;;;;0.46;75.24;99997.48;109036;1256;99269;-61
2023/02/26 09:09:19;;;;;;;4.70;1.30;;;;;;;0.51;75.12;99998.98;109052;1256;88975;-55
2023/02/26 09:11:53;;;;;;;2.40;1.40;;;;;;;0.54;75.02;99999.66;109042;1256;95564;-55
2023/02/26 09:14:27;;;;;;;2.30;1.20;;;;;;;0.56;75.01;100007.56;109032;1256;81155;-56
2023/02/26 09:17:02;;;;;;;2.90;1.40;;;;;;;0.60;74.97;100014.31;109050;1256;82737;-55
2023/02/26 09:19:36;;;;;;;2.30;1.30;;;;;;;0.64;74.93;100022.30;108928;1256;99472;-61
2023/02/26 09:22:11;;;;;;;3.60;1.70;;;;;;;0.64;75.09;100024.41;109062;1256;88922;-61
2023/02/26 09:24:45;;;;;;;2.30;1.60;;;;;;;0.65;75.23;100029.02;109010;1256;93647;-59
2023/02/26 09:27:19;;;;;;;2.60;1.70;;;;;;;0.64;75.29;100031.49;109058;1256;76328;-59
2023/02/26 09:29:54;;;;;;;2.90;1.70;;;;;;;0.67;75.21;100031.42;109048;1256;81549;-57
2023/02/26 09:32:28;;;;;;;3.00;1.80;;;;;;;0.71;75.35;100040.30;109047;1256;99607;-56
2023/02/26 09:35:04;;;;;;;3.60;1.80;;;;;;;0.67;75.25;100041.77;109065;1256;89105;-57
2023/02/26 09:37:38;;;;;;;2.90;1.90;;;;;;;0.67;75.36;100044.70;109036;1256;94136;-57
2023/02/26 09:40:26;;;;;;;4.50;2.30;;;;;;;0.70;75.38;100046.96;109013;1256;80178;-57
2023/02/26 09:43:23;;;;;;;4.00;2.00;;;;;;;0.72;75.55;100052.25;109065;1256;81870;-60
2023/02/26 09:46:02;;;;;;;4.90;2.00;;;;;;;0.70;75.49;100057.95;109035;1256;98470;-61
2023/02/26 09:48:50;;;;;;;3.90;1.90;;;;;;;0.66;75.55;100062.53;109082;1256;88890;-55
2023/02/26 09:51:26;;;;;;;2.50;1.70;;;;;;;0.65;75.33;100069.88;109054;1256;95343;-60
2023/02/26 09:54:05;;;;;;;4.80;1.90;;;;;;;0.66;75.47;100078.45;109064;1256;80420;-60
2023/02/26 09:56:40;;;;;;;4.00;2.30;;;;;;;0.70;75.61;100081.71;109094;1256;82179;-61
2023/02/26 09:59:15;;;;;;;4.10;2.40;;;;;;;0.73;75.73;100085.70;109015;1256;97727;-60
2023/02/26 10:02:00;;;;;;;4.70;2.30;;;;;;;0.76;75.79;100085.02;109055;1256;87248;-61
2023/02/26 10:04:56;;;;;;;3.60;2.10;;;;;;;0.80;75.87;100090.85;109046;1256;94302;-61
2023/02/26 10:07:51;;;;;;;4.10;2.10;;;;;;;0.85;75.93;100092.56;109043;1256;78610;-61
2023/02/26 10:10:38;;;;;;;3.10;1.90;;;;;;;0.89;75.93;100095.38;109044;1256;81789;-58
2023/02/26 10:13:23;;;;;;;4.00;1.80;;;;;;;0.86;75.94;100097.63;109023;1256;97059;-55
2023/02/26 10:16:03;;;;;;;3.20;2.10;;;;;;;0.83;75.81;100099.48;109055;1256;87983;-55
2023/02/26 10:18:45;;;;;;;6.00;2.80;;;;;;;0.80;75.72;100108.08;108924;1256;94844;-57
2023/02/26 10:21:27;;;;;;;3.60;2.20;;;;;;;0.74;75.51;100108.76;109045;1256;77326;-58
2023/02/26 10:24:08;;;;;;;4.70;2.20;;;;;;;0.77;75.51;100111.92;109057;1256;80896;-55
2023/02/26 10:26:46;;;;;;;4.70;2.60;;;;;;;0.67;75.19;100119.31;108988;1256;99361;-56
2023/02/26 10:29:27;;;;;;;3.40;2.00;;;;;;;0.65;75.29;100123.55;109089;1256;89198;-60
2023/02/26 10:32:19;;;;;;;3.60;2.00;;;;;;;0.65;75.08;100126.23;109166;1256;94202;-60
2023/02/26 10:34:57;;;;;;;4.40;1.90;;;;;;;0.64;74.93;100131.45;109048;1256;78136;-59
2023/02/26 10:37:48;;;;;;;3.40;2.20;;;;;;;0.61;74.83;100137.02;109027;1256;80883;-59
2023/02/26 10:40:28;;;;;;;3.60;2.50;;;;;;;0.58;74.49;100141.67;109094;1256;98526;-61
2023/02/26 10:43:12;;;;;;;3.80;1.70;;;;;;;0.69;74.50;100147.55;109156;1256;86719;-59
2023/02/26 10:45:59;;;;;;;3.40;2.00;;;;;;;0.78;74.33;100150.99;109037;1256;95330;-59
2023/02/26 10:48:55;;;;;;;4.40;2.40;;;;;;;0.92;74.31;100150.41;109032;1256;79083;-56
2023/02/26 10:51:35;;;;;;;2.70;1.60;;;;;;;1.04;74.20;100154.98;109060;1256;82848;-56
2023/02/26 10:54:21;;;;;;;1.80;1.20;;;;;;;1.20;73.72;100158.77;109091;1256;99936;-61
2023/02/26 10:56:55;;;;;;;4.40;1.50;;;;;;;1.22;73.26;100162.11;109150;1256;87409;-61
2023/02/26 10:59:29;;;;;;;2.40;1.20;;;;;;;1.30;73.23;100161.95;109028;1257;95434;-56
2023/02/26 11:02:04;;;;;;;2.20;1.30;;;;;;;1.37;73.04;100162.26;109039;1256;78361;-55
2023/02/26 11:04:39;;;;;;;2.30;1.10;;;;;;;1.44;72.66;100166.55;109036;1260;79664;-55
2023/02/26 11:07:13;;;;;;;2.20;1.40;;;;;;;1.51;72.29;100165.85;109052;1256;99216;-56
2023/02/26 11:09:49;;;;;;;2.60;1.20;;;;;;;1.57;72.14;100167.98;109087;1256;87434;-58
2023/02/26 11:12:23;;;;;;;2.50;1.40;;;;;;;1.55;72.08;100176.71;109040;1256;95276;-57
2023/02/26 11:14:57;;;;;;;2.70;1.20;;;;;;;1.51;71.79;100183.60;108998;1256;80027;-56
2023/02/26 11:17:59;;;;;;;1.60;1.20;;;;;;;1.52;71.65;100184.62;109043;1256;80134;-56
2023/02/26 11:20:42;;;;;;;2.50;1.40;;;;;;;1.50;71.53;100185.98;109014;1256;99720;-57
2023/02/26 11:23:21;;;;;;;3.00;1.70;;;;;;;1.50;71.21;100189.01;109101;1256;88224;-62
2023/02/26 11:26:05;;;;;;;2.80;1.60;;;;;;;1.49;71.16;100194.42;109065;1256;94368;-61
2023/02/26 11:28:47;;;;;;;2.50;1.40;;;;;;;1.48;71.30;100195.81;109075;1258;76537;-58
2023/02/26 11:31:26;;;;;;;3.20;1.50;;;;;;;1.52;71.43;100198.77;109039;1256;82720;-58
2023/02/26 11:34:06;;;;;;;2.90;1.50;;;;;;;1.54;71.25;100201.08;109045;1256;99364;-56
2023/02/26 11:36:44;;;;;;;2.90;1.50;;;;;;;1.50;71.04;100206.65;109055;1256;87296;-57
2023/02/26 11:39:22;;;;;;;3.10;1.40;;;;;;;1.49;70.97;100207.73;109028;1256;93483;-60
2023/02/26 11:42:00;;;;;;;3.20;1.50;;;;;;;1.43;71.00;100212.37;109043;1260;79667;-60
2023/02/26 11:44:41;;;;;;;2.40;1.50;;;;;;;1.35;70.83;100213.45;109068;1256;82202;-62
2023/02/26 11:47:20;;;;;;;3.40;1.70;;;;;;;1.33;70.93;100217.73;109043;1261;99182;-62
2023/02/26 11:50:03;;;;;;;3.50;2.20;;;;;;;1.28;70.94;100222.27;109082;1256;87382;-60
2023/02/26 11:52:43;;;;;;;3.30;1.90;;;;;;;1.20;71.04;100226.81;109025;1256;95493;-64
2023/02/26 11:55:28;;;;;;;2.60;1.70;;;;;;;1.23;71.35;100228.52;109033;1256;79426;-61
2023/02/26 11:58:05;;;;;;;;;;;;;;;1.23;71.25;100230.72;109077;1256;80998;-62
2023/02/26 12:00:41;;;;;;;3.40;2.00;;;;;;;1.29;71.49;100234.95;109040;1256;97269;-60
2023/02/26 12:03:21;;;;;;;2.90;1.60;;;;;;;1.39;71.47;100238.82;109065;1256;85640;-60
2023/02/26 12:05:56;;;;;;;5.60;2.50;;;;;;;1.54;71.69;100240.14;109054;1257;94841;-60
2023/02/26 12:08:37;;;;;;;4.40;2.40;;;;;;;1.62;71.57;100244.71;109039;1256;79372;-60
2023/02/26 12:11:36;;;;;;;3.80;2.20;;;;;;;1.73;71.66;100251.17;109052;1256;82287;-60
2023/02/26 12:14:47;;;;;;;4.40;2.10;;;;;;;1.79;71.51;100253.17;109034;1256;99029;-57
2023/02/26 12:17:35;;;;;;;3.70;2.70;;;;;;;1.84;71.56;100259.67;108956;1256;88471;-57
2023/02/26 12:20:21;;;;;;;3.20;2.00;;;;;;;1.84;71.53;100265.14;109051;1258;96280;-62
2023/02/26 12:23:15;;;;;;;9.10;4.20;;;;;;;1.82;71.57;100268.04;109056;1257;79372;-57